Time;durP1;ratioP1;P1;durP2;ratioP2;P2;SDS_P1;SDS_P2;PMS_P1;PMS_P2;Temp;Humidity;BMP_temperature;BMP_pressure;BME280_temperature;BME280_humidity;BME280_pressure;Samples;Min_cycle;Max_cycle;Signal;HPM_P1;HPM_P2
2021/03/02 08:13:48;;;;;;;14.80;9.98;;;15.50;99.20;;;;;;5066728;27;20593;-75
2021/03/02 08:16:14;;;;;;;19.15;11.45;;;15.50;99.40;;;;;;5067019;28;20358;-74
2021/03/02 08:18:41;;;;;;;22.80;10.65;;;15.70;99.10;;;;;;5068250;28;20082;-70
2021/03/02 08:21:15;;;;;;;21.65;11.57;;;15.80;99.00;;;;;;5068638;28;20082;-70
2021/03/02 08:23:43;;;;;;;31.75;13.65;;;16.10;99.40;;;;;;5068219;28;20029;-70
2021/03/02 08:26:21;;;;;;;22.83;12.20;;;16.30;99.90;;;;;;5067643;28;20097;-74
2021/03/02 08:29:09;;;;;;;24.05;11.85;;;16.30;99.90;;;;;;5067978;28;20036;-70
2021/03/02 08:31:37;;;;;;;17.60;10.93;;;16.40;99.00;;;;;;5068069;28;20048;-70
2021/03/02 08:34:05;;;;;;;17.67;11.07;;;16.60;99.00;;;;;;5067959;28;20518;-70
2021/03/02 08:36:31;;;;;;;19.27;10.93;;;16.70;98.30;;;;;;5078827;28;20473;-73
2021/03/02 08:38:57;;;;;;;15.05;10.27;;;16.70;97.90;;;;;;5080105;28;20028;-71
2021/03/02 08:41:33;;;;;;;16.45;9.63;;;16.90;98.40;;;;;;5066606;28;20025;-73
2021/03/02 08:44:00;;;;;;;16.48;9.82;;;17.00;98.10;;;;;;5067603;28;20028;-75
2021/03/02 08:46:28;;;;;;;17.73;9.25;;;17.00;98.20;;;;;;5067032;28;20067;-68
2021/03/02 08:48:54;;;;;;;16.35;10.23;;;17.00;99.50;;;;;;5067382;28;20041;-70
2021/03/02 08:51:24;;;;;;;18.70;10.88;;;16.90;99.00;;;;;;5067442;28;20116;-69
2021/03/02 08:53:52;;;;;;;18.65;10.80;;;16.90;98.20;;;;;;5067465;28;20035;-70
2021/03/02 08:56:19;;;;;;;18.35;10.45;;;17.00;98.00;;;;;;5067329;28;20017;-69
2021/03/02 08:58:54;;;;;;;20.70;10.93;;;17.00;98.00;;;;;;5067532;28;20055;-77
2021/03/02 09:01:23;;;;;;;21.13;11.32;;;17.10;97.70;;;;;;5067594;28;20032;-76
2021/03/02 09:03:53;;;;;;;26.58;11.98;;;17.10;97.90;;;;;;5067557;28;20100;-73
2021/03/02 09:06:25;;;;;;;22.10;10.95;;;17.00;98.20;;;;;;5066983;28;20016;-70
2021/03/02 09:08:54;;;;;;;19.25;10.95;;;17.00;98.80;;;;;;5067273;28;20017;-68
2021/03/02 09:11:24;;;;;;;19.88;10.63;;;17.10;98.40;;;;;;5066583;28;20040;-73
2021/03/02 09:13:51;;;;;;;21.40;10.98;;;17.10;98.00;;;;;;5066824;28;20045;-69
2021/03/02 09:16:33;;;;;;;16.33;10.07;;;17.20;98.00;;;;;;5066831;28;20059;-73
2021/03/02 09:19:11;;;;;;;18.98;10.68;;;17.20;98.10;;;;;;5067062;28;20102;-65
2021/03/02 09:21:40;;;;;;;14.82;9.80;;;17.20;98.30;;;;;;5066029;28;20028;-69
2021/03/02 09:24:07;;;;;;;19.60;9.73;;;17.20;98.60;;;;;;5059651;28;20031;-72
2021/03/02 09:26:32;;;;;;;15.05;9.40;;;17.10;98.60;;;;;;5053774;28;20053;-67
2021/03/02 09:29:04;;;;;;;17.65;8.93;;;17.20;98.70;;;;;;5053299;28;20072;-75
2021/03/02 09:31:31;;;;;;;19.40;9.15;;;17.10;99.00;;;;;;5053134;28;20498;-75
2021/03/02 09:33:58;;;;;;;19.63;9.23;;;17.20;99.00;;;;;;5053860;28;20028;-73
2021/03/02 09:36:29;;;;;;;15.38;9.15;;;17.20;99.20;;;;;;5053311;28;20035;-72
2021/03/02 09:38:56;;;;;;;17.00;9.00;;;17.30;99.30;;;;;;5053697;28;20017;-71
2021/03/02 09:41:38;;;;;;;15.85;8.55;;;17.30;99.20;;;;;;5052604;28;20068;-71
2021/03/02 09:44:22;;;;;;;16.92;8.80;;;17.40;99.70;;;;;;5053034;28;20029;-74
2021/03/02 09:46:49;;;;;;;22.48;8.80;;;17.40;99.70;;;;;;5052622;28;20025;-69
2021/03/02 09:49:41;;;;;;;12.95;8.93;;;17.40;99.40;;;;;;5053200;28;20017;-73
2021/03/02 09:52:23;;;;;;;14.00;8.85;;;17.40;99.70;;;;;;5053253;28;20091;-72
2021/03/02 09:55:14;;;;;;;11.80;7.80;;;17.40;99.60;;;;;;5053202;28;20037;-72
2021/03/02 09:57:51;;;;;;;12.32;7.50;;;17.50;99.70;;;;;;5033433;28;20030;-67
2021/03/02 10:00:37;;;;;;;12.32;7.93;;;17.60;99.70;;;;;;5033306;28;20025;-69
2021/03/02 10:03:13;;;;;;;10.18;7.72;;;17.80;99.50;;;;;;5033301;28;20416;-75
2021/03/02 10:05:53;;;;;;;14.65;7.70;;;17.80;99.70;;;;;;5033475;28;20181;-74
2021/03/02 10:08:23;;;;;;;11.07;7.40;;;17.80;99.50;;;;;;5036310;28;20132;-75
2021/03/02 10:10:49;;;;;;;9.30;6.72;;;17.80;99.50;;;;;;5052239;28;20029;-75
2021/03/02 10:13:35;;;;;;;11.10;6.80;;;17.70;99.40;;;;;;5052242;28;20060;-74
2021/03/02 10:16:24;;;;;;;10.25;6.93;;;17.80;99.40;;;;;;5052885;28;20064;-76
2021/03/02 10:18:52;;;;;;;12.93;6.97;;;17.80;99.40;;;;;;5052771;28;20362;-76
2021/03/02 10:21:19;;;;;;;9.98;6.50;;;17.80;99.30;;;;;;5051510;28;20473;-76
2021/03/02 10:23:46;;;;;;;11.93;6.85;;;17.90;99.20;;;;;;5052544;28;20531;-77
2021/03/02 10:26:17;;;;;;;11.98;7.25;;;17.90;99.20;;;;;;5052651;28;20017;-74
2021/03/02 10:28:43;;;;;;;9.75;6.78;;;17.90;99.20;;;;;;5053017;28;20381;-75
2021/03/02 10:31:09;;;;;;;9.85;6.78;;;18.00;99.30;;;;;;5053664;28;20036;-75
2021/03/02 10:33:34;;;;;;;9.57;6.38;;;18.00;99.30;;;;;;5051982;28;20084;-77
2021/03/02 10:36:00;;;;;;;13.30;6.85;;;18.00;99.70;;;;;;5051416;28;20037;-77
2021/03/02 10:38:25;;;;;;;15.82;7.95;;;18.10;99.60;;;;;;5052207;28;20029;-76
2021/03/02 10:40:51;;;;;;;19.05;7.68;;;18.10;99.40;;;;;;5052225;28;20025;-73
2021/03/02 10:43:17;;;;;;;15.73;6.95;;;18.20;99.40;;;;;;5049820;28;20358;-75
2021/03/02 10:45:43;;;;;;;13.50;7.22;;;18.20;99.20;;;;;;5055034;28;20024;-77
2021/03/02 10:48:09;;;;;;;14.65;7.55;;;18.20;99.50;;;;;;5055165;28;20488;-76
2021/03/02 10:50:34;;;;;;;14.77;7.15;;;18.30;99.70;;;;;;5051944;28;20053;-76
2021/03/02 10:53:00;;;;;;;14.00;6.85;;;18.30;99.80;;;;;;5051938;28;20542;-77
2021/03/02 10:55:25;;;;;;;14.32;7.28;;;18.40;99.70;;;;;;5069567;28;20024;-77
2021/03/02 10:57:51;;;;;;;15.45;7.63;;;18.40;99.90;;;;;;5052832;28;20108;-77
2021/03/02 11:00:18;;;;;;;12.55;6.95;;;18.50;99.90;;;;;;5052015;28;20025;-71
2021/03/02 11:02:44;;;;;;;13.93;7.13;;;18.50;99.90;;;;;;5051894;28;20039;-76
2021/03/02 11:05:11;;;;;;;11.88;6.50;;;18.50;99.90;;;;;;5060638;28;20103;-67
2021/03/02 11:07:37;;;;;;;17.83;7.30;;;18.60;99.90;;;;;;5067055;28;20082;-76
2021/03/02 11:10:04;;;;;;;14.10;7.47;;;18.60;99.90;;;;;;5051862;28;20381;-74
2021/03/02 11:12:30;;;;;;;14.32;6.68;;;18.70;99.90;;;;;;5051168;28;20049;-75
2021/03/02 11:14:55;;;;;;;13.27;6.70;;;18.80;99.90;;;;;;5051202;28;20032;-77
2021/03/02 11:17:21;;;;;;;16.63;6.65;;;18.70;99.90;;;;;;5051613;28;20025;-77
2021/03/02 11:19:48;;;;;;;13.23;6.70;;;18.70;99.90;;;;;;5051531;28;20104;-74
2021/03/02 11:22:14;;;;;;;10.88;6.45;;;18.80;99.90;;;;;;5051434;28;20110;-75
2021/03/02 11:24:40;;;;;;;12.10;6.70;;;18.80;99.90;;;;;;5051684;28;20056;-72
2021/03/02 11:27:06;;;;;;;12.73;6.35;;;18.90;99.90;;;;;;5051998;28;20114;-77
2021/03/02 11:29:35;;;;;;;13.77;6.25;;;18.90;99.90;;;;;;5051478;28;20072;-74
2021/03/02 11:32:01;;;;;;;12.98;6.68;;;19.00;99.90;;;;;;5051508;28;20025;-74
2021/03/02 11:34:27;;;;;;;12.52;6.50;;;19.00;99.90;;;;;;5050975;28;20021;-77
2021/03/02 11:36:53;;;;;;;11.85;6.75;;;19.00;99.90;;;;;;5050384;28;20035;-70
2021/03/02 11:39:18;;;;;;;11.85;6.28;;;19.10;99.90;;;;;;5051113;28;20037;-76
2021/03/02 11:41:44;;;;;;;12.68;7.00;;;19.10;99.80;;;;;;5051114;28;20024;-77
2021/03/02 11:44:09;;;;;;;12.63;6.50;;;19.10;99.70;;;;;;5051644;28;20025;-72
2021/03/02 11:46:35;;;;;;;13.18;6.97;;;19.10;99.70;;;;;;5049614;28;20107;-74
2021/03/02 11:49:00;;;;;;;10.55;6.53;;;19.20;99.70;;;;;;5050331;28;20108;-76
2021/03/02 11:51:26;;;;;;;11.95;6.22;;;19.20;99.70;;;;;;5050400;28;20086;-73
2021/03/02 11:53:52;;;;;;;11.93;6.88;;;19.10;99.70;;;;;;5050721;28;20056;-72
2021/03/02 11:56:17;;;;;;;12.10;6.90;;;19.20;99.60;;;;;;5049906;28;20385;-76
2021/03/02 11:58:43;;;;;;;10.10;6.57;;;19.20;99.40;;;;;;5050264;28;20060;-74
2021/03/02 12:01:08;;;;;;;10.98;6.93;;;19.10;99.80;;;;;;5050100;28;20458;-76
2021/03/02 12:03:34;;;;;;;13.15;7.13;;;19.20;99.80;;;;;;5050243;28;20087;-69
2021/03/02 12:06:00;;;;;;;14.98;6.97;;;19.20;99.90;;;;;;5050943;28;20063;-71
2021/03/02 12:08:26;;;;;;;10.75;6.95;;;19.20;99.80;;;;;;5050403;28;20098;-75
2021/03/02 12:10:52;;;;;;;12.93;7.93;;;19.20;99.90;;;;;;5050995;28;20060;-72
2021/03/02 12:13:18;;;;;;;13.02;7.05;;;19.20;99.80;;;;;;5050674;28;20060;-66
2021/03/02 12:15:44;;;;;;;12.48;6.63;;;19.20;99.90;;;;;;5050381;28;20056;-65
2021/03/02 12:18:10;;;;;;;12.80;7.50;;;19.20;99.80;;;;;;5050630;28;20036;-68
2021/03/02 12:20:36;;;;;;;11.02;7.30;;;19.20;99.70;;;;;;5051117;28;20025;-65
2021/03/02 12:23:01;;;;;;;11.50;6.47;;;19.40;99.70;;;;;;5050775;28;20091;-66
2021/03/02 12:25:27;;;;;;;11.85;6.97;;;19.60;99.50;;;;;;5050678;28;20021;-66
2021/03/02 12:27:53;;;;;;;11.88;6.45;;;19.70;99.80;;;;;;5049678;28;20381;-72
2021/03/02 12:30:19;;;;;;;9.82;6.65;;;19.80;99.40;;;;;;5050456;28;20029;-70
2021/03/02 12:32:44;;;;;;;9.20;6.32;;;19.80;99.30;;;;;;5049611;28;20028;-70
2021/03/02 12:35:11;;;;;;;9.93;6.47;;;19.90;99.30;;;;;;5049080;28;20037;-66
2021/03/02 12:37:37;;;;;;;13.05;6.30;;;19.90;99.30;;;;;;5049652;28;20049;-71
2021/03/02 12:40:04;;;;;;;9.15;6.47;;;20.00;99.20;;;;;;5049319;28;20115;-72
2021/03/02 12:42:30;;;;;;;10.27;6.53;;;20.00;99.10;;;;;;5049104;28;20388;-64
2021/03/02 12:44:56;;;;;;;11.95;6.65;;;20.10;99.40;;;;;;5048730;28;20021;-67
2021/03/02 12:47:21;;;;;;;8.77;6.10;;;20.20;99.10;;;;;;5048702;28;20432;-70
2021/03/02 12:49:47;;;;;;;9.30;6.45;;;20.20;99.00;;;;;;5037146;28;20391;-69
2021/03/02 12:52:13;;;;;;;10.85;7.35;;;20.20;99.10;;;;;;5048562;28;20021;-64
2021/03/02 12:54:38;;;;;;;9.23;6.65;;;19.90;99.00;;;;;;5050687;28;20035;-70
2021/03/02 12:57:05;;;;;;;10.52;7.00;;;19.80;99.30;;;;;;5049810;28;20025;-72
2021/03/02 12:59:30;;;;;;;8.90;6.72;;;19.70;99.40;;;;;;5050869;28;20123;-70
2021/03/02 13:01:56;;;;;;;10.23;6.82;;;19.60;99.10;;;;;;5052415;28;20109;-71
2021/03/02 13:04:23;;;;;;;10.20;7.03;;;19.60;99.20;;;;;;5052757;28;20033;-65
2021/03/02 13:06:48;;;;;;;10.85;6.95;;;19.60;99.30;;;;;;5048994;28;20040;-71
2021/03/02 13:09:14;;;;;;;13.40;6.88;;;19.50;99.20;;;;;;5053725;28;20116;-71
2021/03/02 13:11:43;;;;;;;9.00;6.80;;;19.60;99.30;;;;;;5053470;28;20117;-69
2021/03/02 13:14:08;;;;;;;12.52;7.50;;;19.50;99.30;;;;;;5051508;28;20021;-70
2021/03/02 13:16:34;;;;;;;10.90;8.13;;;19.50;99.30;;;;;;5059172;28;20537;-71
2021/03/02 13:19:01;;;;;;;12.45;7.35;;;19.60;99.40;;;;;;5068315;28;20036;-71
2021/03/02 13:21:26;;;;;;;9.18;7.15;;;19.50;99.40;;;;;;5062029;28;20096;-65
2021/03/02 13:23:52;;;;;;;10.07;6.93;;;19.60;99.20;;;;;;5052803;28;20149;-65
2021/03/02 13:26:27;;;;;;;8.55;7.00;;;19.60;99.10;;;;;;5053569;28;20025;-71
2021/03/02 13:28:55;;;;;;;9.02;7.10;;;19.60;99.40;;;;;;5053121;28;20055;-72
2021/03/02 13:31:23;;;;;;;11.60;7.25;;;19.60;99.50;;;;;;5053376;28;20025;-71
2021/03/02 13:33:51;;;;;;;10.45;7.55;;;19.60;99.50;;;;;;5053401;28;20052;-71
2021/03/02 13:36:19;;;;;;;11.77;7.60;;;19.60;99.90;;;;;;5053434;28;20092;-71
2021/03/02 13:38:46;;;;;;;10.75;6.80;;;19.60;99.60;;;;;;5053138;28;20024;-71
2021/03/02 13:41:12;;;;;;;9.85;7.22;;;19.70;99.60;;;;;;5053412;28;20029;-67
2021/03/02 13:43:39;;;;;;;10.40;6.85;;;19.70;99.80;;;;;;5053653;28;20503;-71
2021/03/02 13:46:06;;;;;;;12.73;6.28;;;19.70;99.90;;;;;;5053590;28;20388;-66
2021/03/02 13:48:32;;;;;;;14.05;6.93;;;19.80;99.40;;;;;;5053184;28;20173;-72
2021/03/02 13:50:58;;;;;;;10.30;6.60;;;19.80;99.70;;;;;;5053005;28;20025;-67
2021/03/02 13:53:25;;;;;;;9.50;6.85;;;19.80;99.80;;;;;;5052777;28;20469;-69
2021/03/02 13:55:51;;;;;;;8.48;6.57;;;19.80;99.90;;;;;;5053533;28;20025;-72
2021/03/02 13:58:17;;;;;;;10.00;6.57;;;19.80;99.90;;;;;;5052573;28;20028;-72
2021/03/02 14:00:43;;;;;;;10.63;6.35;;;19.80;99.90;;;;;;5053100;28;20024;-71
2021/03/02 14:03:14;;;;;;;12.65;6.82;;;19.70;99.90;;;;;;5053038;28;20507;-65
2021/03/02 14:05:41;;;;;;;9.55;6.78;;;19.80;99.90;;;;;;5050578;28;20028;-66
2021/03/02 14:08:09;;;;;;;12.25;6.70;;;19.70;99.90;;;;;;5050167;28;20102;-72
2021/03/02 14:10:35;;;;;;;8.95;6.60;;;19.80;99.90;;;;;;5051404;28;20025;-68
2021/03/02 14:13:01;;;;;;;11.32;6.45;;;19.80;99.90;;;;;;5051948;28;20443;-70
2021/03/02 14:15:28;;;;;;;10.32;6.45;;;19.80;99.90;;;;;;5050444;28;20430;-71
2021/03/02 14:17:55;;;;;;;10.45;6.60;;;19.90;99.90;;;;;;5052437;28;20068;-70
2021/03/02 14:20:25;;;;;;;11.00;6.18;;;19.90;99.90;;;;;;5052274;28;20075;-72
2021/03/02 14:22:51;;;;;;;11.13;6.80;;;19.90;99.90;;;;;;5052640;28;20040;-70
2021/03/02 14:25:18;;;;;;;9.77;6.75;;;20.00;99.90;;;;;;5052456;28;20021;-69
2021/03/02 14:27:43;;;;;;;12.68;7.30;;;20.00;99.90;;;;;;5052658;28;20025;-71
2021/03/02 14:30:14;;;;;;;12.32;7.32;;;20.00;99.90;;;;;;5052933;28;20564;-71
2021/03/02 14:32:41;;;;;;;10.07;6.63;;;20.00;99.90;;;;;;5052639;28;20074;-67
2021/03/02 14:35:08;;;;;;;9.90;6.35;;;20.00;99.90;;;;;;5052877;28;20167;-72
2021/03/02 14:37:34;;;;;;;10.88;6.82;;;20.00;99.90;;;;;;5051670;28;20021;-71
2021/03/02 14:40:00;;;;;;;9.27;6.65;;;19.90;99.90;;;;;;5052489;28;20047;-71
2021/03/02 14:42:28;;;;;;;10.30;6.88;;;20.00;99.90;;;;;;5052290;28;20032;-70
2021/03/02 14:44:59;;;;;;;11.40;6.97;;;20.00;99.90;;;;;;5052424;28;20024;-70
2021/03/02 14:47:32;;;;;;;9.38;6.80;;;20.00;99.90;;;;;;5052114;28;20032;-70
2021/03/02 14:50:12;;;;;;;11.38;6.65;;;20.10;99.90;;;;;;5052224;28;20142;-70
2021/03/02 14:52:38;;;;;;;8.00;6.88;;;20.10;99.90;;;;;;5052204;28;20103;-70
2021/03/02 14:55:08;;;;;;;11.55;6.60;;;20.00;99.90;;;;;;5051512;28;20037;-70
2021/03/02 14:57:44;;;;;;;9.70;6.53;;;20.00;99.90;;;;;;5051295;28;20358;-66
2021/03/02 15:00:12;;;;;;;9.77;6.85;;;20.00;99.90;;;;;;5049194;28;20423;-65
2021/03/02 15:02:42;;;;;;;10.60;6.55;;;20.00;99.90;;;;;;5051829;28;20037;-63
2021/03/02 15:05:09;;;;;;;9.38;6.22;;;20.00;99.90;;;;;;5051946;28;20021;-68
2021/03/02 15:07:36;;;;;;;11.77;6.85;;;20.00;99.90;;;;;;5050875;28;20052;-69
2021/03/02 15:10:03;;;;;;;7.93;6.30;;;20.00;99.90;;;;;;5051597;28;20086;-70
2021/03/02 15:12:31;;;;;;;12.82;5.90;;;20.00;99.90;;;;;;5049820;28;20083;-69
2021/03/02 15:14:57;;;;;;;10.10;5.65;;;20.10;99.90;;;;;;5058744;28;20020;-69
2021/03/02 15:17:26;;;;;;;13.32;5.78;;;20.10;99.90;;;;;;5071552;28;20025;-70
2021/03/02 15:19:52;;;;;;;10.75;5.95;;;20.10;99.90;;;;;;5055229;28;20430;-70
2021/03/02 15:22:18;;;;;;;8.27;5.95;;;20.10;99.90;;;;;;5050502;28;20028;-70
2021/03/02 15:24:46;;;;;;;11.20;5.80;;;20.10;99.90;;;;;;5051734;28;20492;-71
2021/03/02 15:27:15;;;;;;;9.57;5.45;;;20.10;99.90;;;;;;5051052;28;20404;-70
2021/03/02 15:29:41;;;;;;;8.20;5.32;;;20.20;99.90;;;;;;5051099;28;20025;-70
2021/03/02 15:32:14;;;;;;;12.38;5.40;;;20.20;99.90;;;;;;5059390;28;20024;-69
2021/03/02 15:34:45;;;;;;;9.68;5.57;;;20.10;99.90;;;;;;5067576;28;20029;-74
2021/03/02 15:37:11;;;;;;;8.23;5.93;;;20.20;99.90;;;;;;5051143;28;20072;-68
2021/03/02 15:39:44;;;;;;;7.50;6.07;;;20.30;99.90;;;;;;5051181;28;20025;-70
2021/03/02 15:42:13;;;;;;;8.82;5.95;;;20.40;99.90;;;;;;5051284;28;20033;-70
2021/03/02 15:44:39;;;;;;;8.32;6.18;;;20.40;99.90;;;;;;5051639;28;20082;-62
2021/03/02 15:47:06;;;;;;;11.75;6.18;;;20.50;99.90;;;;;;5050380;28;20376;-64
2021/03/02 15:49:32;;;;;;;8.60;6.25;;;20.50;99.90;;;;;;5050629;28;20025;-62
2021/03/02 15:51:59;;;;;;;8.70;6.57;;;20.50;99.90;;;;;;5050509;28;20029;-63
2021/03/02 15:54:26;;;;;;;9.93;6.82;;;20.50;99.90;;;;;;5066162;28;20017;-63
2021/03/02 15:56:54;;;;;;;9.52;6.35;;;20.40;99.90;;;;;;5051262;28;20051;-63
2021/03/02 15:59:20;;;;;;;10.90;6.93;;;20.40;99.90;;;;;;5051307;28;20021;-63
2021/03/02 16:02:00;;;;;;;11.20;6.93;;;20.40;99.90;;;;;;5051102;28;20059;-62
2021/03/02 16:04:36;;;;;;;9.27;7.07;;;20.40;99.90;;;;;;5050257;28;20025;-62
2021/03/02 16:07:08;;;;;;;9.63;6.32;;;20.40;99.90;;;;;;5050671;28;20111;-62
2021/03/02 16:09:42;;;;;;;8.95;6.60;;;20.30;99.90;;;;;;5050352;28;20028;-62
2021/03/02 16:12:08;;;;;;;9.35;6.63;;;20.30;99.90;;;;;;5049287;28;20031;-62
2021/03/02 16:14:35;;;;;;;9.02;6.47;;;20.30;99.90;;;;;;5050422;28;20495;-62
2021/03/02 16:17:06;;;;;;;11.68;6.72;;;20.30;99.90;;;;;;5051042;28;20481;-63
2021/03/02 16:19:37;;;;;;;8.02;6.15;;;20.40;99.90;;;;;;5051014;28;20415;-62
2021/03/02 16:22:05;;;;;;;15.35;6.70;;;20.30;99.90;;;;;;5050858;28;20021;-62
2021/03/02 16:24:32;;;;;;;10.25;6.85;;;20.30;99.90;;;;;;5051019;28;20373;-62
2021/03/02 16:27:00;;;;;;;9.85;6.93;;;20.30;99.90;;;;;;5051325;28;20075;-62
2021/03/02 16:29:29;;;;;;;7.32;5.93;;;20.30;99.90;;;;;;5050937;28;20043;-63
2021/03/02 16:31:57;;;;;;;8.73;6.22;;;20.20;99.90;;;;;;5050805;28;20029;-63
2021/03/02 16:34:28;;;;;;;8.93;5.80;;;20.20;99.90;;;;;;5052593;28;20029;-62
2021/03/02 16:36:56;;;;;;;8.65;5.72;;;20.20;99.90;;;;;;5055218;28;20040;-63
2021/03/02 16:39:22;;;;;;;7.70;6.40;;;20.20;99.90;;;;;;5055039;28;20209;-63
2021/03/02 16:41:52;;;;;;;9.50;6.00;;;20.20;99.90;;;;;;5054858;28;20469;-63
2021/03/02 16:44:18;;;;;;;9.63;6.18;;;20.10;99.90;;;;;;5054475;28;20021;-63
2021/03/02 16:46:44;;;;;;;7.70;5.57;;;20.10;99.90;;;;;;5054643;28;20068;-62
2021/03/02 16:49:12;;;;;;;8.40;5.97;;;20.20;99.90;;;;;;5054839;28;20025;-64
2021/03/02 16:51:44;;;;;;;8.32;6.25;;;20.10;99.90;;;;;;5053776;28;20116;-62
2021/03/02 16:54:12;;;;;;;8.95;6.00;;;20.10;99.90;;;;;;5057645;28;20392;-63
2021/03/02 16:56:47;;;;;;;8.20;5.97;;;20.10;99.90;;;;;;5054633;28;20036;-62
2021/03/02 16:59:15;;;;;;;7.80;5.18;;;20.10;99.90;;;;;;5054311;28;20503;-63
2021/03/02 17:01:43;;;;;;;8.25;5.90;;;20.20;99.90;;;;;;5054502;28;20032;-63
2021/03/02 17:04:10;;;;;;;8.18;5.90;;;20.20;99.90;;;;;;5054631;28;20032;-62
2021/03/02 17:06:41;;;;;;;8.07;5.97;;;20.30;99.90;;;;;;5054247;28;20032;-62
2021/03/02 17:09:12;;;;;;;7.20;5.68;;;20.30;99.90;;;;;;5053518;28;20047;-62
2021/03/02 17:11:38;;;;;;;7.85;5.78;;;20.40;99.90;;;;;;5052618;28;20029;-62
2021/03/02 17:14:04;;;;;;;7.13;5.50;;;20.40;99.90;;;;;;5053120;28;20029;-62
2021/03/02 17:16:30;;;;;;;7.03;5.13;;;20.40;99.90;;;;;;5053925;28;20512;-62
2021/03/02 17:18:56;;;;;;;8.82;5.78;;;20.40;99.90;;;;;;5053986;28;20040;-61
2021/03/02 17:21:22;;;;;;;8.95;5.20;;;20.40;99.90;;;;;;5053500;28;20059;-62
2021/03/02 17:23:47;;;;;;;10.23;5.60;;;20.30;99.90;;;;;;5053961;28;20068;-61
2021/03/02 17:26:13;;;;;;;9.75;5.35;;;20.30;99.90;;;;;;5051697;28;20103;-61
2021/03/02 17:28:39;;;;;;;8.85;5.13;;;20.40;99.90;;;;;;5053269;28;20516;-62
2021/03/02 17:31:05;;;;;;;7.00;5.40;;;20.40;99.90;;;;;;5054433;28;20071;-61
2021/03/02 17:33:30;;;;;;;7.05;5.30;;;20.50;99.90;;;;;;5053648;28;20524;-62
2021/03/02 17:35:58;;;;;;;7.50;5.15;;;20.50;99.90;;;;;;5053775;28;20461;-62
2021/03/02 17:38:24;;;;;;;7.45;5.25;;;20.50;99.90;;;;;;5052145;28;20091;-62
2021/03/02 17:40:50;;;;;;;7.93;5.25;;;20.50;99.90;;;;;;5053502;28;20032;-62
2021/03/02 17:43:16;;;;;;;6.97;4.95;;;20.50;99.90;;;;;;5068051;28;20033;-62
2021/03/02 17:45:43;;;;;;;7.35;5.28;;;20.50;99.90;;;;;;5051598;28;20469;-62
2021/03/02 17:48:10;;;;;;;7.20;5.35;;;20.50;99.90;;;;;;5053086;28;20041;-61
2021/03/02 17:50:39;;;;;;;7.80;5.03;;;20.50;99.90;;;;;;5069171;28;20025;-63
2021/03/02 17:53:05;;;;;;;5.85;4.57;;;20.50;99.90;;;;;;5054672;28;20029;-63
2021/03/02 17:55:31;;;;;;;8.45;5.20;;;20.50;99.90;;;;;;5052542;28;20478;-62
2021/03/02 17:57:56;;;;;;;8.65;4.75;;;20.50;99.90;;;;;;5053237;28;20171;-62
2021/03/02 18:00:22;;;;;;;7.60;5.10;;;20.50;99.90;;;;;;5052755;28;20025;-61
2021/03/02 18:02:48;;;;;;;7.60;5.10;;;20.50;99.90;;;;;;5053270;28;20044;-62
2021/03/02 18:05:14;;;;;;;8.98;5.80;;;20.50;99.90;;;;;;5053319;28;20491;-63
2021/03/02 18:07:40;;;;;;;6.90;5.28;;;20.50;99.90;;;;;;5052784;28;20033;-61
2021/03/02 18:10:06;;;;;;;9.18;6.15;;;20.50;99.90;;;;;;5053413;28;20021;-63
2021/03/02 18:12:32;;;;;;;9.32;6.63;;;20.50;99.90;;;;;;5052107;28;20396;-61
2021/03/02 18:14:57;;;;;;;8.98;6.35;;;20.50;99.90;;;;;;5061205;28;20029;-62
2021/03/02 18:17:23;;;;;;;9.45;7.10;;;20.50;99.90;;;;;;5052419;28;20021;-62
2021/03/02 18:19:49;;;;;;;9.52;7.47;;;20.50;99.90;;;;;;5068432;28;20039;-62
2021/03/02 18:22:14;;;;;;;11.27;7.57;;;20.50;99.90;;;;;;5051583;28;20036;-61
2021/03/02 18:24:40;;;;;;;10.48;7.72;;;20.40;99.90;;;;;;5052478;28;20021;-62
2021/03/02 18:27:06;;;;;;;10.55;8.00;;;20.40;99.90;;;;;;5053243;28;20064;-61
2021/03/02 18:29:33;;;;;;;9.98;7.80;;;20.40;99.90;;;;;;5052714;28;20025;-61
2021/03/02 18:31:58;;;;;;;9.95;8.05;;;20.30;99.90;;;;;;5051743;28;20021;-60
2021/03/02 18:34:24;;;;;;;11.27;7.88;;;20.30;99.90;;;;;;5052567;28;20032;-61
2021/03/02 18:36:50;;;;;;;11.20;8.43;;;20.30;99.90;;;;;;5052238;28;20028;-61
2021/03/02 18:39:17;;;;;;;13.15;8.80;;;20.30;99.90;;;;;;5048251;28;20366;-61
2021/03/02 18:41:43;;;;;;;14.18;8.75;;;20.30;99.90;;;;;;5048747;28;20159;-61
2021/03/02 18:44:11;;;;;;;12.60;9.18;;;20.20;99.90;;;;;;5059734;28;20040;-61
2021/03/02 18:46:37;;;;;;;13.77;9.90;;;20.20;99.90;;;;;;5052807;28;20037;-61
2021/03/02 18:49:04;;;;;;;19.10;10.10;;;20.10;99.90;;;;;;5052460;28;20096;-61
2021/03/02 18:51:30;;;;;;;15.32;9.65;;;20.00;99.90;;;;;;5052231;28;20412;-60
2021/03/02 18:53:56;;;;;;;12.40;9.35;;;20.00;99.90;;;;;;5052471;28;20021;-61
2021/03/02 18:56:24;;;;;;;13.88;9.85;;;20.00;99.90;;;;;;5051382;28;20028;-61
2021/03/02 18:58:51;;;;;;;13.43;9.02;;;20.00;99.90;;;;;;5051819;28;20397;-61
2021/03/02 19:01:21;;;;;;;15.90;9.35;;;20.00;99.90;;;;;;5052133;28;20033;-60
2021/03/02 19:03:47;;;;;;;13.60;9.48;;;20.00;99.90;;;;;;5052319;28;20071;-58
2021/03/02 19:06:13;;;;;;;14.55;9.32;;;20.00;99.90;;;;;;5052079;28;20099;-62
2021/03/02 19:08:39;;;;;;;14.07;10.60;;;20.10;99.90;;;;;;5052388;28;20465;-60
2021/03/02 19:11:05;;;;;;;14.10;10.23;;;20.10;99.90;;;;;;5052350;28;20047;-59
2021/03/02 19:13:32;;;;;;;13.23;9.90;;;20.20;99.90;;;;;;5042424;28;20137;-60
2021/03/02 19:15:59;;;;;;;16.00;10.48;;;20.20;99.90;;;;;;5045677;28;20017;-59
2021/03/02 19:18:25;;;;;;;12.15;9.63;;;20.20;99.90;;;;;;5051422;28;20033;-60
2021/03/02 19:20:51;;;;;;;13.68;9.02;;;20.20;99.90;;;;;;5039747;28;20052;-62
2021/03/02 19:23:17;;;;;;;15.05;9.20;;;20.20;99.90;;;;;;5049762;28;20045;-62
2021/03/02 19:25:42;;;;;;;13.02;9.00;;;20.10;99.90;;;;;;5050269;28;20017;-62
2021/03/02 19:28:09;;;;;;;16.67;9.18;;;20.10;99.90;;;;;;5050554;28;20099;-62
2021/03/02 19:30:35;;;;;;;13.95;9.73;;;20.10;99.90;;;;;;5047110;28;20049;-62
2021/03/02 19:33:01;;;;;;;13.65;8.77;;;20.00;99.90;;;;;;5051179;28;20548;-62
2021/03/02 19:35:27;;;;;;;13.40;9.25;;;20.00;99.90;;;;;;5050697;28;20109;-62
2021/03/02 19:37:52;;;;;;;15.25;9.30;;;20.00;99.90;;;;;;5050496;28;20493;-61
2021/03/02 19:40:18;;;;;;;12.40;9.38;;;20.00;99.90;;;;;;5050541;28;20032;-62
2021/03/02 19:42:44;;;;;;;13.82;8.70;;;20.10;99.90;;;;;;5050745;28;20044;-62
2021/03/02 19:45:12;;;;;;;12.80;9.20;;;20.10;99.90;;;;;;5050935;28;20017;-62
2021/03/02 19:47:37;;;;;;;14.45;9.95;;;20.10;99.90;;;;;;5051342;28;20037;-62
2021/03/02 19:50:04;;;;;;;12.80;9.30;;;20.00;99.90;;;;;;5050846;28;20378;-62
2021/03/02 19:52:30;;;;;;;13.63;9.20;;;20.00;99.90;;;;;;5050175;28;21172;-62
2021/03/02 19:54:55;;;;;;;13.40;8.88;;;20.00;99.90;;;;;;5050884;28;20381;-62
2021/03/02 19:57:21;;;;;;;13.60;9.40;;;19.90;99.90;;;;;;5050558;28;20024;-61
2021/03/02 19:59:47;;;;;;;13.50;8.93;;;19.90;99.90;;;;;;5049582;28;20029;-63
2021/03/02 20:02:12;;;;;;;11.38;8.45;;;19.90;99.90;;;;;;5050412;28;20039;-62
2021/03/02 20:04:38;;;;;;;10.93;7.85;;;19.80;99.90;;;;;;5051008;28;20112;-63
2021/03/02 20:07:04;;;;;;;13.80;8.70;;;19.80;99.90;;;;;;5050730;28;20029;-63
2021/03/02 20:09:30;;;;;;;12.10;9.00;;;19.80;99.90;;;;;;5050344;28;20068;-62
2021/03/02 20:11:56;;;;;;;11.25;8.85;;;19.80;99.90;;;;;;5050567;28;20033;-63
2021/03/02 20:14:22;;;;;;;12.18;8.77;;;19.80;99.90;;;;;;5049761;28;20071;-63
2021/03/02 20:16:47;;;;;;;11.30;8.02;;;19.70;99.90;;;;;;5050508;28;20029;-61
2021/03/02 20:19:14;;;;;;;12.25;8.35;;;19.80;99.90;;;;;;5050270;28;20025;-63
2021/03/02 20:21:41;;;;;;;10.20;7.72;;;19.80;99.90;;;;;;5050256;28;20112;-62
2021/03/02 20:24:07;;;;;;;17.15;9.02;;;19.90;99.90;;;;;;5050814;28;20037;-64
2021/03/02 20:26:33;;;;;;;13.30;8.85;;;19.90;99.90;;;;;;5049975;28;20079;-63
2021/03/02 20:28:59;;;;;;;10.75;8.25;;;19.90;99.90;;;;;;5049655;28;20078;-64
2021/03/02 20:31:24;;;;;;;10.93;8.15;;;19.90;99.90;;;;;;5050402;28;20063;-62
2021/03/02 20:33:50;;;;;;;12.82;8.43;;;19.90;99.90;;;;;;5053797;28;20017;-59
2021/03/02 20:36:16;;;;;;;12.82;8.60;;;19.90;99.90;;;;;;5050267;28;20025;-59
2021/03/02 20:38:41;;;;;;;13.40;9.27;;;19.90;99.90;;;;;;5049702;28;20100;-60
2021/03/02 20:41:07;;;;;;;15.00;9.02;;;19.90;99.90;;;;;;5050270;28;20044;-59
2021/03/02 20:43:33;;;;;;;14.05;9.30;;;19.80;99.90;;;;;;5050153;28;20052;-58
2021/03/02 20:45:59;;;;;;;14.10;9.20;;;19.80;99.90;;;;;;5050115;28;20108;-59
2021/03/02 20:48:25;;;;;;;11.00;7.97;;;19.80;99.90;;;;;;5050412;28;20021;-58
2021/03/02 20:50:50;;;;;;;11.98;8.48;;;19.80;99.90;;;;;;5053333;28;20091;-58
2021/03/02 20:53:16;;;;;;;13.77;9.15;;;19.70;99.90;;;;;;5050142;28;20021;-59